Anyang, China
Current Conditions -  °F | °C
As of 3:00 PM on Saturday 25 Oct 2014 (Local Time) from ZHCC Reporting Station
Haze Haze  
Wind Chill: 77°   Ceiling: Unl
Heat Index: 79°   Visibility: 2.5mi
Dew Point: 57°   Wind: 7mph
Humidity: 50%   Direction: 190°S
Pressure: 29.88"   Gusts: NA
Location:  36.08°N, 114.35°E
Report Text: ZHCC 250700Z 19003MPS 160V240 4000 HZ NSC 25/14 Q1012 NOSIG
Loading
Personal Weather Stations






























Interactive Weather Map
Tropical Storm Tracking
New forecast layout! Learn more

10-Day Weather Forecast

Advertisements
Track Severe Weather on mobile